Latest Coastal Weather Observations for Kiama

IDN60701

Issued at 7:02 pm EST Monday 29 August 2016 (issued every 10 minutes, with the page automatically refreshed every 10 minutes)

About coastal observations | Map of coastal stations | Coastal observations for NSW | Marine services | Other Formats
Station Details ID: 068242 Name: KIAMA (BOMBO HEADLAND) Lat: -34.65 Lon: 150.86 Height: 15.5 m
Data from the previous 72 hours. | See also: Recent months at Kiama
Date/Time
EST
Temp
°C
Wind Pressure Rain since
9am
mm
Weather Cloud Vis
km
Sea
Height
m
Swell
Dir  Spd
kts
Gust
kts
hPa Trend Height
m
Period
s
Dir
29/07:00pm 15.1 NW 3 4 - - 0.0 - - - - - - -
29/06:30pm 15.7 NNW 2 3 - - 0.0 - - - - - - -
29/06:00pm 16.2 N 5 6 - - 0.0 - - - - - - -
29/05:30pm 16.2 NNE 4 6 - - 0.0 - - - - - - -
29/05:00pm 16.4 NNE 5 7 - - 0.0 - - - - - - -
29/04:30pm 16.7 NE 5 7 - - 0.0 - - - - - - -
29/04:00pm 17.2 NE 5 7 - - 0.0 - - - - - - -
29/03:30pm 17.7 NE 5 6 - - 0.0 - - - - - - -
29/03:00pm 17.5 NE 5 6 - - 0.0 - - - - - - -
29/02:30pm 17.6 NNE 5 6 - - 0.0 - - - - - - -
29/02:00pm 18.1 NE 4 6 - - 0.0 - - - - - - -
29/01:30pm 18.4 ENE 3 4 - - 0.0 - - - - - - -
29/01:00pm 18.9 ENE 3 5 - - 0.0 - - - - - - -
29/12:30pm 18.2 E 3 5 - - 0.0 - - - - - - -
29/12:00pm 18.1 SE 5 6 - - 0.0 - - - - - - -
29/11:30am 18.3 SE 4 5 - - 0.0 - - - - - - -
29/11:00am 17.8 SSE 5 6 - - 0.0 - - - - - - -
29/10:30am 18.9 ENE 1 3 - - 0.0 - - - - - - -
29/10:00am 18.7 NE 3 4 - - 0.0 - - - - - - -
29/09:30am 18.5 NNE 2 3 - - 0.0 - - - - - - -
29/09:00am 17.5 W 1 2 - - 0.0 - - - - - - -
29/08:30am 16.3 WNW 2 3 - - 0.0 - - - - - - -
29/08:00am 15.3 W 2 3 - - 0.0 - - - - - - -
29/07:30am 13.7 W 4 5 - - 0.0 - - - - - - -
29/07:00am 12.6 W 5 6 - - 0.0 - - - - - - -
29/06:30am 11.9 W 6 7 - - 0.0 - - - - - - -
29/06:00am 12.3 WNW 6 8 - - 0.0 - - - - - - -
29/05:30am 12.4 WNW 6 8 - - 0.0 - - - - - - -
29/05:00am 12.3 WNW 6 7 - - 0.0 - - - - - - -
29/04:30am 12.5 WNW 6 8 - - 0.0 - - - - - - -
29/04:00am 12.4 WNW 5 7 - - 0.0 - - - - - - -
29/03:30am 12.6 WNW 5 8 - - 0.0 - - - - - - -
29/03:00am 12.7 WNW 6 8 - - 0.0 - - - - - - -
29/02:30am 12.6 W 5 7 - - 0.0 - - - - - - -
29/02:00am 13.1 WNW 6 9 - - 0.0 - - - - - - -
29/01:30am 12.9 W 6 8 - - 0.0 - - - - - - -
29/01:00am 12.6 W 5 6 - - 0.0 - - - - - - -
29/12:30am 13.6 WNW 5 7 - - 0.0 - - - - - - -
29/12:00am 13.6 W 5 8 - - 0.0 - - - - - - -
 
Date/Time
EST
Temp
°C
Wind Pressure Rain since
9am
mm
Weather Cloud Vis
km
Sea
Height
m
Swell
Dir  Spd
kts
Gust
kts
hPa Trend Height
m
Period
s
Dir
28/11:30pm 13.9 WNW 5 9 - - 0.0 - - - - - - -
28/11:00pm 14.2 WNW 5 9 - - 0.0 - - - - - - -
28/10:30pm 14.2 WNW 6 9 - - 0.0 - - - - - - -
28/10:00pm 14.1 WNW 5 8 - - 0.0 - - - - - - -
28/09:30pm 14.1 WNW 5 9 - - 0.0 - - - - - - -
28/09:00pm 13.7 NW 5 7 - - 0.0 - - - - - - -
28/08:30pm 12.4 WNW 5 7 - - 0.0 - - - - - - -
28/08:00pm 12.0 W 4 5 - - 0.0 - - - - - - -
28/07:30pm 12.5 W 5 5 - - 0.0 - - - - - - -
28/07:00pm 13.1 WNW 5 6 - - 0.0 - - - - - - -
28/06:30pm 13.6 WNW 4 6 - - 0.0 - - - - - - -
28/06:00pm 14.3 W 2 3 - - 0.0 - - - - - - -
28/05:30pm 15.3 WNW 2 3 - - 0.0 - - - - - - -
28/05:00pm 17.1 WSW 5 7 - - 0.0 - - - - - - -
28/04:30pm 17.6 WSW 8 12 - - 0.0 - - - - - - -
28/04:00pm 17.5 WSW 8 15 - - 0.0 - - - - - - -
28/03:30pm 17.8 WSW 7 13 - - 0.0 - - - - - - -
28/03:00pm 17.7 SW 9 13 - - 0.0 - - - - - - -
28/02:30pm 18.2 W 7 14 - - 0.0 - - - - - - -
28/02:00pm 17.5 SW 10 15 - - 0.0 - - - - - - -
28/01:30pm 17.6 SW 10 15 - - 0.0 - - - - - - -
28/01:00pm 17.8 SW 8 13 - - 0.0 - - - - - - -
28/12:30pm 17.7 SSW 8 13 - - 0.0 - - - - - - -
28/12:00pm 17.2 SW 10 13 - - 0.0 - - - - - - -
28/11:30am 17.4 SW 7 11 - - 0.0 - - - - - - -
28/11:00am 17.0 SW 8 11 - - 0.0 - - - - - - -
28/10:30am 16.4 WSW 11 16 - - 0.0 - - - - - - -
28/10:00am 16.5 WSW 9 14 - - 0.0 - - - - - - -
28/09:30am 15.6 WSW 14 20 - - 0.0 - - - - - - -
28/09:00am 15.2 W 9 15 - - 0.0 - - - - - - -
28/08:30am 14.4 W 11 16 - - 0.0 - - - - - - -
28/08:00am 14.0 W 11 16 - - 0.0 - - - - - - -
28/07:48am 13.8 W 15 28 - - 0.0 - - - - - - -
28/07:30am 13.2 WSW 10 19 - - 0.0 - - - - - - -
28/07:00am 12.2 W 13 22 - - 0.0 - - - - - - -
28/06:30am 11.4 WNW 11 20 - - 0.0 - - - - - - -
28/06:00am 11.7 W 16 26 - - 0.0 - - - - - - -
28/05:30am 12.0 WSW 17 27 - - 0.0 - - - - - - -
28/05:20am 11.6 W 15 25 - - 0.0 - - - - - - -
28/05:00am 11.6 W 12 22 - - 0.0 - - - - - - -
28/04:32am 11.5 WNW 15 27 - - 0.0 - - - - - - -
28/04:30am 11.6 WNW 15 24 - - 0.0 - - - - - - -
28/04:03am 11.7 WNW 15 26 - - 0.0 - - - - - - -
28/04:00am 11.8 WNW 14 25 - - 0.0 - - - - - - -
28/03:46am 11.8 W 15 25 - - 0.0 - - - - - - -
28/03:30am 11.8 W 15 24 - - 0.0 - - - - - - -
28/03:05am 11.9 WNW 15 25 - - 0.0 - - - - - - -
28/03:00am 11.7 WNW 13 23 - - 0.0 - - - - - - -
28/02:30am 11.6 WNW 14 23 - - 0.0 - - - - - - -
28/02:00am 11.7 WNW 18 25 - - 0.0 - - - - - - -
28/01:30am 11.8 W 16 22 - - 0.0 - - - - - - -
28/01:00am 12.1 W 13 21 - - 0.0 - - - - - - -
28/12:30am 12.2 W 18 27 - - 0.0 - - - - - - -
28/12:21am 12.1 W 15 27 - - 0.0 - - - - - - -
28/12:00am 12.0 W 14 21 - - 0.0 - - - - - - -
 
Date/Time
EST
Temp
°C
Wind Pressure Rain since
9am
mm
Weather Cloud Vis
km
Sea
Height
m
Swell
Dir  Spd
kts
Gust
kts
hPa Trend Height
m
Period
s
Dir
27/11:30pm 12.3 W 16 30 - - 0.0 - - - - - - -
27/11:00pm 12.5 W 13 21 - - 0.0 - - - - - - -
27/10:30pm 12.4 WNW 9 15 - - 0.0 - - - - - - -
27/10:00pm 12.2 W 10 16 - - 0.0 - - - - - - -
27/09:30pm 12.8 W 10 17 - - 0.0 - - - - - - -
27/09:00pm 11.8 W 4 7 - - 0.0 - - - - - - -
27/08:30pm 12.0 NW 4 6 - - 0.0 - - - - - - -
27/08:00pm 12.0 N 5 6 - - 0.0 - - - - - - -
27/07:30pm 13.3 W 6 9 - - 0.0 - - - - - - -
27/07:00pm 13.2 W 5 8 - - 0.0 - - - - - - -
27/06:30pm 13.4 W 3 4 - - 0.0 - - - - - - -
27/06:00pm 14.0 W 3 4 - - 0.0 - - - - - - -
27/05:30pm 15.2 WNW 3 3 - - 0.0 - - - - - - -
27/05:00pm 16.7 N 6 9 - - 0.0 - - - - - - -
27/04:30pm 17.0 NNE 9 13 - - 0.0 - - - - - - -
27/04:00pm 16.9 NNE 10 13 - - 0.0 - - - - - - -
27/03:30pm 17.1 NNE 10 13 - - 0.0 - - - - - - -
27/03:00pm 17.4 NNE 10 14 - - 0.0 - - - - - - -
27/02:30pm 17.6 NNE 10 15 - - 0.0 - - - - - - -
27/02:00pm 17.8 NE 10 14 - - 0.0 - - - - - - -
27/01:30pm 17.7 NNE 10 15 - - 0.0 - - - - - - -
27/01:00pm 17.8 NE 10 13 - - 0.0 - - - - - - -
27/12:30pm 18.1 NE 10 13 - - 0.0 - - - - - - -
27/12:00pm 17.4 NE 9 13 - - 0.0 - - - - - - -
27/11:30am 17.7 NE 7 9 - - 0.0 - - - - - - -
27/11:00am 17.6 NE 6 8 - - 0.0 - - - - - - -
27/10:30am 17.5 NE 5 7 - - 0.0 - - - - - - -
27/10:00am 16.4 W 3 6 - - 0.0 - - - - - - -
27/09:30am 16.1 WNW 3 6 - - 0.0 - - - - - - -
27/09:00am 14.8 WNW 6 8 - - 0.0 - - - - - - -
27/08:30am 13.7 WNW 3 5 - - 0.0 - - - - - - -
27/08:00am 12.4 WNW 5 7 - - 0.0 - - - - - - -
27/07:30am 11.0 WNW 6 9 - - 0.0 - - - - - - -
27/07:00am 10.0 WNW 7 10 - - 0.0 - - - - - - -
27/06:30am 9.6 WNW 7 11 - - 0.0 - - - - - - -
27/06:00am 9.7 W 8 12 - - 0.0 - - - - - - -
27/05:30am 9.7 W 8 12 - - 0.0 - - - - - - -
27/05:00am 9.4 W 8 11 - - 0.0 - - - - - - -
27/04:30am 9.3 W 7 9 - - 0.0 - - - - - - -
27/04:00am 9.3 W 7 9 - - 0.0 - - - - - - -
27/03:30am 9.7 W 8 10 - - 0.0 - - - - - - -
27/03:00am 9.8 W 7 9 - - 0.0 - - - - - - -
27/02:30am 9.9 W 7 9 - - 0.0 - - - - - - -
27/02:00am 10.1 W 7 10 - - 0.0 - - - - - - -
27/01:30am 10.2 W 7 10 - - 0.0 - - - - - - -
27/01:00am 10.2 WNW 6 10 - - 0.0 - - - - - - -
27/12:30am 10.3 W 7 9 - - 0.0 - - - - - - -
27/12:00am 9.8 W 7 8 - - 0.0 - - - - - - -
 
Date/Time
EST
Temp
°C
Wind Pressure Rain since
9am
mm
Weather Cloud Vis
km
Sea
Height
m
Swell
Dir  Spd
kts
Gust
kts
hPa Trend Height
m
Period
s
Dir
26/11:30pm 9.9 WNW 6 9 - - 0.0 - - - - - - -
26/11:00pm 10.0 WNW 6 7 - - 0.0 - - - - - - -
26/10:30pm 10.2 WNW 6 9 - - 0.0 - - - - - - -
26/10:00pm 10.6 W 6 9 - - 0.0 - - - - - - -
26/09:30pm 10.5 W 6 8 - - 0.0 - - - - - - -
26/09:00pm 10.5 W 6 8 - - 0.0 - - - - - - -
26/08:30pm 10.9 W 6 8 - - 0.0 - - - - - - -
26/08:00pm 12.2 WSW 6 9 - - 0.0 - - - - - - -
26/07:30pm 12.9 WSW 6 9 - - 0.0 - - - - - - -

Other Formats:

Comma delimited format used in spreadsheet applications
http://www.bom.gov.au/fwo/IDN60701/IDN60701.95749.axf

JavaScript Object Notation format (JSON) in row-major order
http://www.bom.gov.au/fwo/IDN60701/IDN60701.95749.json